createdAt,value
2024-03-05T00:00:29.162Z,99913.5240990527
2024-03-05T00:03:24.685Z,99922.04089100755
2024-03-05T00:06:20.305Z,99915.09192195951
2024-03-05T00:09:15.810Z,99926.83340764407
2024-03-05T00:12:12.368Z,99922.63464851424
2024-03-05T00:15:08.932Z,99919.44935927054
2024-03-05T00:18:05.612Z,99921.56179400883
2024-03-05T00:21:01.067Z,99924.19507924502
2024-03-05T00:23:56.610Z,99924.35150284738
2024-03-05T00:26:54.149Z,99923.85772175188
2024-03-05T00:29:49.710Z,99925.90175347558
2024-03-05T00:32:45.308Z,99920.43054043772
2024-03-05T00:35:42.849Z,99924.97256213432
2024-03-05T00:38:39.379Z,99918.22079958343
2024-03-05T00:41:34.978Z,99928.18989311907
2024-03-05T00:44:31.557Z,99928.27135238521
2024-03-05T00:47:27.074Z,99928.45149958643
2024-03-05T00:50:23.654Z,99927.14871010218
2024-03-05T00:53:19.203Z,99925.1749074387
2024-03-05T00:56:14.767Z,99921.09167045704
2024-03-05T00:59:12.342Z,99918.63069783995
2024-03-05T01:02:07.954Z,99919.51552038331
2024-03-05T01:05:07.459Z,99913.85259524117
2024-03-05T01:08:04.055Z,99919.78458693052
2024-03-05T01:11:00.968Z,99922.01594806406
2024-03-05T01:13:56.222Z,99918.95031034765
2024-03-05T01:16:52.770Z,99922.8811183321
2024-03-05T01:19:48.275Z,99923.69044316906
2024-03-05T01:22:43.877Z,99924.78009642065
2024-03-05T01:25:42.409Z,99922.78938366164
2024-03-05T01:28:39.959Z,99918.60087288998
2024-03-05T01:31:35.513Z,99918.50532519814
2024-03-05T01:37:37.567Z,99923.99374179427
2024-03-05T01:40:33.088Z,99923.11729547128
2024-03-05T01:43:31.705Z,99927.87452531648
2024-03-05T01:46:29.273Z,99925.18007453329
2024-03-05T01:49:25.875Z,99916.84112369594
2024-03-05T01:52:23.384Z,99917.62777049432
2024-03-05T01:55:19.910Z,99915.94334495574
2024-03-05T01:58:18.515Z,99921.05440835554
2024-03-05T02:01:16.147Z,99920.36151901424
2024-03-05T02:04:15.583Z,99921.82046642472
2024-03-05T02:07:14.231Z,99921.47211622566
2024-03-05T02:10:10.666Z,99925.96503986447
2024-03-05T02:13:10.250Z,99930.53085035687
2024-03-05T02:16:06.809Z,99932.95270843191
2024-03-05T02:19:04.365Z,99932.95270843191
2024-03-05T02:22:02.950Z,99929.09775793145
2024-03-05T02:24:59.463Z,99930.16321146888
2024-03-05T02:27:56.035Z,99941.86224757649
2024-03-05T02:30:52.564Z,99937.64878534332
2024-03-05T02:33:49.106Z,99941.50761696
2024-03-05T02:36:44.685Z,99947.32279205942
2024-03-05T02:39:40.259Z,99950.54641874497
2024-03-05T02:42:36.793Z,99945.48213082737
2024-03-05T02:45:32.382Z,99948.70746422192
2024-03-05T02:48:28.025Z,99951.79534608648
2024-03-05T02:51:24.564Z,99955.90077824268
2024-03-05T02:54:20.055Z,99953.01419786846
2024-03-05T02:57:15.605Z,99949.10235301676
2024-03-05T03:00:20.647Z,99953.17660300065
2024-03-05T03:03:17.720Z,99950.11898788456
2024-03-05T03:06:16.292Z,99952.73426238574
2024-03-05T03:09:12.807Z,99953.47052610076
2024-03-05T03:12:14.420Z,99952.9681224406
2024-03-05T03:15:10.958Z,99965.14334856524
2024-03-05T03:18:07.600Z,99962.04098467689
2024-03-05T03:21:06.047Z,99969.7303270524
2024-03-05T03:24:01.599Z,99966.62979770082
2024-03-05T03:26:58.157Z,99973.8745249502
2024-03-05T03:29:53.815Z,99970.54436672438
2024-03-05T03:32:50.336Z,99969.90452806622
2024-03-05T03:35:46.840Z,99967.24984461059
2024-03-05T03:38:43.403Z,99966.84929072166
2024-03-05T03:41:40.951Z,99973.30525880666
2024-03-05T03:44:36.526Z,99980.23976092339
2024-03-05T03:47:32.086Z,99984.36418675548
2024-03-05T03:50:27.622Z,99990.39238661555
2024-03-05T03:53:23.209Z,99987.88625979201
2024-03-05T03:56:18.760Z,99988.44958736366
2024-03-05T03:59:15.331Z,99990.84752724698
2024-03-05T04:02:10.960Z,99991.18886118116
2024-03-05T04:05:10.410Z,99999.29966034243
2024-03-05T04:08:07.054Z,99999.72639844571
2024-03-05T04:11:04.624Z,99998.35379286544
2024-03-05T04:14:04.324Z,100001.45929354313
2024-03-05T04:17:01.667Z,100005.47017486946
2024-03-05T04:19:57.559Z,100002.65010283265
2024-03-05T04:22:54.841Z,100009.02959580501
2024-03-05T04:25:59.440Z,100008.44991006647
2024-03-05T04:29:02.032Z,100010.44093581925
2024-03-05T04:35:11.962Z,100020.59406304856
2024-03-05T04:38:08.480Z,100012.58325531294
2024-03-05T04:41:06.126Z,100009.24369238685
2024-03-05T04:44:02.639Z,100014.94463225067
2024-03-05T04:46:59.179Z,100017.47451561743
2024-03-05T04:49:55.735Z,100015.69903628541
2024-03-05T04:52:53.308Z,100016.176396717
2024-03-05T04:55:49.829Z,100018.99077560687
2024-03-05T04:58:46.416Z,100026.60407805968
2024-03-05T05:01:41.967Z,100034.2419088688
2024-03-05T05:04:38.579Z,100035.92088034973
2024-03-05T05:07:35.126Z,100032.52237028285
2024-03-05T05:10:32.638Z,100028.51868271874
2024-03-05T05:13:28.259Z,100031.53405910527
2024-03-05T05:16:27.878Z,100035.77072174064
2024-03-05T05:19:26.406Z,100034.45634961726
2024-03-05T05:22:22.958Z,100036.68684427324
2024-03-05T05:25:20.480Z,100038.79912765887
2024-03-05T05:28:16.001Z,100040.23812833431
2024-03-05T05:31:24.529Z,100041.10515709913
2024-03-05T05:34:22.057Z,100039.84030304209
2024-03-05T05:37:18.600Z,100044.36529653189
2024-03-05T05:40:20.354Z,100047.24757056884
2024-03-05T05:43:20.772Z,100054.39288004985
2024-03-05T05:46:24.269Z,100058.85780813129
2024-03-05T05:49:22.012Z,100055.70107145442
2024-03-05T05:52:18.384Z,100061.30879666598
2024-03-05T05:55:17.100Z,100063.71407035754
2024-03-05T05:58:14.470Z,100060.4226502322
2024-03-05T06:01:15.429Z,100060.42565748184
2024-03-05T06:04:12.627Z,100063.11611285702
2024-03-05T06:07:11.849Z,100068.15761099002
2024-03-05T06:10:08.750Z,100068.26620900219
2024-03-05T06:13:04.238Z,100071.31413000067
2024-03-05T06:16:00.820Z,100077.14487337085
2024-03-05T06:18:57.324Z,100076.58674397231
2024-03-05T06:21:54.030Z,100084.9597829516
2024-03-05T06:24:49.509Z,100084.27592578335
2024-03-05T06:27:47.111Z,100083.43632366804
2024-03-05T06:30:49.606Z,100077.67977058615
2024-03-05T06:33:45.174Z,100080.26594541296
2024-03-05T06:36:42.723Z,100092.39313259395
2024-03-05T06:39:42.262Z,100091.79465545643
2024-03-05T06:42:41.832Z,100088.90625485299
2024-03-05T06:45:43.363Z,100087.58655587962
2024-03-05T06:48:47.916Z,100087.32256520295
2024-03-05T06:52:16.406Z,100084.00983946904
2024-03-05T06:55:48.406Z,100085.43027402528
2024-03-05T06:58:45.466Z,100088.29942253503
2024-03-05T07:01:41.074Z,100086.24053725778
2024-03-05T07:04:40.527Z,100090.80483280869
2024-03-05T07:07:36.100Z,100083.65029591424
2024-03-05T07:10:35.757Z,100089.15455155737
2024-03-05T07:13:32.307Z,100090.522263562
2024-03-05T07:16:32.743Z,100090.83119758689
2024-03-05T07:19:30.335Z,100093.23274412891
2024-03-05T07:22:28.841Z,100102.13528469746
2024-03-05T07:25:25.454Z,100100.25014512846
2024-03-05T07:28:21.954Z,100105.9663260002
2024-03-05T07:31:20.188Z,100100.21407896989
2024-03-05T07:34:16.079Z,100103.60004934247
2024-03-05T07:37:13.610Z,100107.2981962437
2024-03-05T07:40:21.200Z,100114.37389692084
2024-03-05T07:43:20.717Z,100114.09201756465
2024-03-05T07:46:18.370Z,100117.73063732598
2024-03-05T07:49:15.057Z,100106.44338470759
2024-03-05T07:52:10.394Z,100110.64533871115
2024-03-05T07:55:06.920Z,100110.2920908175
2024-03-05T07:58:04.506Z,100107.4076665065
2024-03-05T08:01:01.111Z,100111.8553831651
2024-03-05T08:03:57.629Z,100123.09806149066
2024-03-05T08:06:55.663Z,100120.10208866163
2024-03-05T08:09:54.741Z,100115.03693465321
2024-03-05T08:12:55.302Z,100123.282554587
2024-03-05T08:15:50.825Z,100122.38556425842
2024-03-05T08:18:47.379Z,100123.71753678944
2024-03-05T08:21:43.958Z,100122.5907068396
2024-03-05T08:24:43.647Z,100124.33383731837
2024-03-05T08:27:43.087Z,100130.92610278178
2024-03-05T08:30:43.908Z,100130.92543795837
2024-03-05T08:33:39.174Z,100134.64533310337
2024-03-05T08:39:34.292Z,100132.87767146743
2024-03-05T08:42:31.852Z,100138.01772366636
2024-03-05T08:45:27.428Z,100138.07202986116
2024-03-05T08:48:23.976Z,100139.07865360648
2024-03-05T08:51:19.506Z,100143.58675638975
2024-03-05T08:54:17.818Z,100135.29570486357
2024-03-05T08:57:14.562Z,100142.23305481266
2024-03-05T09:00:28.214Z,100143.46015198906
2024-03-05T09:03:29.076Z,100147.175094456
2024-03-05T09:06:24.246Z,100145.47506860606
2024-03-05T09:09:22.768Z,100153.86156171728
2024-03-05T09:12:19.375Z,100156.56428970909
2024-03-05T09:15:16.919Z,100160.85066911932
2024-03-05T09:18:15.183Z,100157.43401493407
2024-03-05T09:21:13.074Z,100162.17340745946
2024-03-05T09:24:08.597Z,100167.37770739353
2024-03-05T09:27:04.173Z,100157.5354749527
2024-03-05T09:30:01.742Z,100158.85855896169
2024-03-05T09:32:59.296Z,100163.61154066557
2024-03-05T09:35:58.834Z,100165.37966053703
2024-03-05T09:38:56.382Z,100171.32589930826
2024-03-05T09:41:53.933Z,100168.0967203999
2024-03-05T09:48:10.120Z,100172.86954689416
2024-03-05T09:51:11.245Z,100168.12997214665
2024-03-05T09:54:12.133Z,100172.0374161311
2024-03-05T09:57:09.654Z,100168.89255161451
2024-03-05T10:00:16.431Z,100170.4266097003
2024-03-05T10:03:11.776Z,100170.03313051492
2024-03-05T10:06:12.329Z,100172.15005924493
2024-03-05T10:09:10.864Z,100170.46943422323
2024-03-05T10:12:14.408Z,100173.25657783802
2024-03-05T10:15:12.961Z,100167.14053825806
2024-03-05T10:18:14.523Z,100174.14295218987
2024-03-05T10:21:20.201Z,100174.10082916639
2024-03-05T10:24:28.581Z,100165.89233068854
2024-03-05T10:27:29.119Z,100166.26529591833
2024-03-05T10:30:25.675Z,100165.96805596593
2024-03-05T10:33:28.223Z,100161.61775619186
2024-03-05T10:36:27.764Z,100165.37855841685
2024-03-05T10:39:29.183Z,100166.685628875
2024-03-05T10:42:33.845Z,100155.33415271317
2024-03-05T10:45:33.433Z,100153.81315116659
2024-03-05T10:48:29.968Z,100153.48706447406
2024-03-05T10:51:31.513Z,100152.17866274816
2024-03-05T10:54:33.582Z,100148.71827869429
2024-03-05T10:57:30.597Z,100151.77523637781
2024-03-05T11:00:27.154Z,100146.84047202668
2024-03-05T11:03:29.714Z,100148.34482658644
2024-03-05T11:06:27.277Z,100148.19281300901
2024-03-05T11:09:24.845Z,100152.20842852884
2024-03-05T11:12:24.378Z,100146.29970651378
2024-03-05T11:15:22.966Z,100141.96093449321
2024-03-05T11:18:30.010Z,100138.81787867875
2024-03-05T11:21:27.370Z,100138.99168868444
2024-03-05T11:24:32.572Z,100135.2215975497
2024-03-05T11:27:35.080Z,100133.8951055451
2024-03-05T11:30:42.628Z,100129.66349664437
2024-03-05T11:33:41.195Z,100131.56417796947
2024-03-05T11:37:01.670Z,100131.73217593554
2024-03-05T11:40:11.344Z,100132.26455119983
2024-03-05T11:43:07.769Z,100124.17549735066
2024-03-05T11:46:35.269Z,100124.123647244
2024-03-05T11:49:35.833Z,100123.29218971186
2024-03-05T11:52:32.384Z,100131.61434598954
2024-03-05T11:55:33.014Z,100132.94750167846
2024-03-05T11:58:29.482Z,100123.7976034801
2024-03-05T12:01:33.097Z,100122.17553029215
2024-03-05T12:04:32.571Z,100122.99483522405
2024-03-05T12:07:30.136Z,100121.88593278971
2024-03-05T12:10:32.886Z,100121.58218873729
2024-03-05T12:13:33.227Z,100116.33655275864
2024-03-05T12:16:39.831Z,100116.33146075989
2024-03-05T12:19:41.477Z,100122.44977697656
2024-03-05T12:22:49.900Z,100127.74517906018
2024-03-05T12:25:48.463Z,100120.7124340731
2024-03-05T12:28:43.971Z,100125.98230915995
2024-03-05T12:31:42.464Z,100119.08503139112
2024-03-05T12:34:41.052Z,100119.19634107285
2024-03-05T12:37:40.592Z,100118.08733668635
2024-03-05T12:40:38.211Z,100123.5821388279
2024-03-05T12:43:50.717Z,100127.30853635618
2024-03-05T12:46:51.295Z,100121.45689833356
2024-03-05T12:49:48.902Z,100122.3024664554
2024-03-05T12:53:00.316Z,100126.83400834078
2024-03-05T12:56:02.008Z,100123.9706483808
2024-03-05T12:58:59.454Z,100126.79462948629
2024-03-05T13:01:57.140Z,100125.92152772013
2024-03-05T13:04:57.020Z,100122.46476124026
2024-03-05T13:07:59.817Z,100125.56260266728
2024-03-05T13:10:56.752Z,100130.23578791722
2024-03-05T13:13:57.197Z,100136.04920626522
2024-03-05T13:16:53.883Z,100123.50551880513
2024-03-05T13:19:49.307Z,100127.26377992873
2024-03-05T13:22:45.886Z,100123.54733288466
2024-03-05T13:25:48.361Z,100124.33540074159
2024-03-05T13:28:47.978Z,100124.67796644096
2024-03-05T13:31:45.512Z,100121.79957553996
2024-03-05T13:34:45.158Z,100123.3464373497
2024-03-05T13:37:48.815Z,100121.9664233916
2024-03-05T13:40:46.160Z,100116.95713222591
2024-03-05T13:43:45.768Z,100123.79780046012
2024-03-05T13:46:44.253Z,100130.52964470848
2024-03-05T13:49:41.837Z,100124.99337185366
2024-03-05T13:52:43.790Z,100125.68815527404
2024-03-05T13:55:42.989Z,100123.33966628862
2024-03-05T13:58:38.472Z,100116.19263253163
2024-03-05T14:01:36.102Z,100121.57056846694
2024-03-05T14:04:37.134Z,100115.33450985751
2024-03-05T14:07:37.136Z,100123.20648370282
2024-03-05T14:10:34.689Z,100129.6615377392
2024-03-05T14:13:39.227Z,100132.3529183238
2024-03-05T14:16:39.829Z,100129.31530467123
2024-03-05T14:19:37.362Z,100130.89890829237
2024-03-05T14:22:33.660Z,100132.80724551031
2024-03-05T14:25:30.805Z,100133.13234122773
2024-03-05T14:28:27.009Z,100137.5305519355
2024-03-05T14:31:24.315Z,100144.93929101345
2024-03-05T14:34:22.175Z,100149.04468896003
2024-03-05T14:37:19.655Z,100146.65097648982
2024-03-05T14:40:19.233Z,100149.31183928502
2024-03-05T14:43:17.800Z,100147.49001460924
2024-03-05T14:46:14.278Z,100147.10801301335
2024-03-05T14:49:11.895Z,100151.66250747908
2024-03-05T14:52:07.435Z,100163.55753069394
2024-03-05T14:58:49.829Z,100155.20448820824
2024-03-05T15:04:46.950Z,100156.06399582182
2024-03-05T15:07:44.267Z,100156.4524317926
2024-03-05T15:10:44.863Z,100159.72655644808
2024-03-05T15:13:40.234Z,100165.8066855592
2024-03-05T15:16:38.784Z,100168.05423305741
2024-03-05T15:19:35.348Z,100169.34574367583
2024-03-05T15:22:30.896Z,100167.1157665158
2024-03-05T15:25:31.530Z,100172.50742963848
2024-03-05T15:28:30.062Z,100178.82379287803
2024-03-05T15:31:25.564Z,100182.1067633051
2024-03-05T15:34:22.199Z,100180.08719960971
2024-03-05T15:37:23.672Z,100184.02214233295
2024-03-05T15:40:21.863Z,100184.94448569953
2024-03-05T15:43:19.776Z,100184.45917423729
2024-03-05T15:46:16.340Z,100191.59866002965
2024-03-05T15:49:15.889Z,100191.20049342398
2024-03-05T15:52:14.474Z,100198.08211314566
2024-03-05T15:55:11.995Z,100199.45297516779
2024-03-05T15:58:41.673Z,100199.76092589957
2024-03-05T16:05:13.681Z,100206.2794192217
2024-03-05T16:13:07.116Z,100219.77271941981
2024-03-05T16:16:10.635Z,100224.9778630768
2024-03-05T16:19:14.124Z,100228.73627396802
2024-03-05T16:22:13.722Z,100232.18483150954
2024-03-05T16:25:18.538Z,100236.24995003006
2024-03-05T16:28:22.815Z,100243.64047564239
2024-03-05T16:31:22.309Z,100243.18130700114
2024-03-05T16:34:25.894Z,100256.00439609776
2024-03-05T16:37:29.292Z,100256.82102849663
2024-03-05T16:40:26.968Z,100262.17390442622
2024-03-05T16:43:24.518Z,100268.77449975398
2024-03-05T16:46:21.083Z,100276.5704340067
2024-03-05T16:49:16.678Z,100277.98439978836
2024-03-05T16:52:17.848Z,100275.76636768269
2024-03-05T16:55:23.778Z,100285.8619243561
2024-03-05T16:58:29.535Z,100287.69369583133
2024-03-05T17:01:29.885Z,100285.0518826298
2024-03-05T17:04:29.363Z,100284.60135600991
2024-03-05T17:07:33.943Z,100289.40515153382
2024-03-05T17:10:35.377Z,100297.84238790807
2024-03-05T17:13:43.034Z,100304.23364848254
2024-03-05T17:19:49.181Z,100300.843092994
2024-03-05T17:22:48.669Z,100296.04504380029
2024-03-05T17:25:46.204Z,100302.03063654543
2024-03-05T17:28:48.776Z,100303.9030099264
2024-03-05T17:34:58.870Z,100303.28993524291
2024-03-05T17:38:02.435Z,100306.95904182058
2024-03-05T17:41:00.842Z,100303.51888273386
2024-03-05T17:43:58.437Z,100304.36831948804
2024-03-05T17:46:57.032Z,100305.06720127375
2024-03-05T17:49:58.578Z,100307.25469962023
2024-03-05T17:53:00.081Z,100310.99023752283
2024-03-05T17:56:04.564Z,100314.42413236618
2024-03-05T17:59:03.218Z,100315.04387063412
2024-03-05T18:02:04.598Z,100320.41117779307
2024-03-05T18:05:07.346Z,100326.35356268796
2024-03-05T18:08:03.957Z,100331.13967258435
2024-03-05T18:11:07.432Z,100336.41026714063
2024-03-05T18:14:15.293Z,100330.21999133979
2024-03-05T18:17:17.447Z,100335.7925803178
2024-03-05T18:20:18.027Z,100343.40535913134
2024-03-05T18:23:18.545Z,100338.25954810301
2024-03-05T18:26:22.341Z,100341.07633115618
2024-03-05T18:29:19.669Z,100342.79884706813
2024-03-05T18:32:26.189Z,100348.80586921766
2024-03-05T18:35:32.738Z,100344.58405257734
2024-03-05T18:38:39.615Z,100348.88112103296
2024-03-05T18:41:43.620Z,100354.89632056445
2024-03-05T18:44:42.323Z,100356.01847279434
2024-03-05T18:47:54.393Z,100356.0662916564
2024-03-05T18:51:07.379Z,100358.17940416034
2024-03-05T18:54:14.939Z,100356.6437120395
2024-03-05T18:57:20.214Z,100363.98613371016
2024-03-05T19:00:21.991Z,100372.59750288427
2024-03-05T19:03:26.553Z,100363.5805657844
2024-03-05T19:06:29.098Z,100366.99581095098
2024-03-05T19:09:30.645Z,100362.05306347794
2024-03-05T19:12:37.169Z,100369.35015717354
2024-03-05T19:15:37.697Z,100368.5855170658
2024-03-05T19:18:39.307Z,100358.96861358146
2024-03-05T19:21:37.794Z,100359.08732559494
2024-03-05T19:24:35.371Z,100356.41413411469
2024-03-05T19:27:41.904Z,100362.5620233832
2024-03-05T19:30:44.425Z,100357.17202262215
2024-03-05T19:33:46.481Z,100359.81401598286
2024-03-05T19:36:42.604Z,100354.94890258941
2024-03-05T19:39:45.088Z,100356.76604875026
2024-03-05T19:42:53.655Z,100363.54472844896
2024-03-05T19:45:58.944Z,100361.97465502526
2024-03-05T19:49:00.289Z,100364.05874084374
2024-03-05T19:52:02.494Z,100364.75112961447
2024-03-05T19:55:01.826Z,100358.50567728381
2024-03-05T19:58:08.583Z,100363.56649546213
2024-03-05T20:01:13.912Z,100363.12425586427
2024-03-05T20:04:16.429Z,100361.24432220688
2024-03-05T20:07:14.012Z,100373.93618790357
2024-03-05T20:10:10.523Z,100374.83151745827
2024-03-05T20:13:09.057Z,100375.38427691453
2024-03-05T20:16:15.164Z,100384.23311203271
2024-03-05T20:19:11.153Z,100386.2880519322
2024-03-05T20:22:15.889Z,100384.07124750491
2024-03-05T20:25:22.318Z,100384.8594957789
2024-03-05T20:28:18.794Z,100377.02333384192
2024-03-05T20:31:23.309Z,100379.06214167995
2024-03-05T20:34:21.922Z,100381.14581789472
2024-03-05T20:37:19.466Z,100383.26582839579
2024-03-05T20:40:17.036Z,100389.64704117172
2024-03-05T20:43:14.585Z,100380.5927897895
2024-03-05T20:46:34.094Z,100384.78320251625
2024-03-05T20:49:30.708Z,100390.45622673228
2024-03-05T20:52:27.260Z,100386.53897157594
2024-03-05T20:55:24.300Z,100381.79731028088
2024-03-05T20:58:31.297Z,100386.80486705789
2024-03-05T21:01:45.735Z,100384.61798194508
2024-03-05T21:04:53.377Z,100389.06797997185
2024-03-05T21:08:00.668Z,100388.69390267372
2024-03-05T21:11:04.238Z,100391.70997326296
2024-03-05T21:14:12.565Z,100389.99583857052
2024-03-05T21:17:12.518Z,100390.0844636134
2024-03-05T21:20:15.669Z,100395.35916861206
2024-03-05T21:23:18.666Z,100387.99037566599
2024-03-05T21:26:35.017Z,100386.74748847126
2024-03-05T21:29:33.631Z,100388.01671075514
2024-03-05T21:32:34.017Z,100389.12354012203
2024-03-05T21:35:32.817Z,100395.64350263138
2024-03-05T21:38:35.631Z,100391.4933300888
2024-03-05T21:41:30.789Z,100393.89226214001
2024-03-05T21:44:37.282Z,100394.95958096032
2024-03-05T21:47:43.902Z,100388.886454592
2024-03-05T21:50:41.463Z,100390.47236887207
2024-03-05T21:53:38.632Z,100385.72450021899
2024-03-05T21:56:36.573Z,100390.21914251772
2024-03-05T21:59:35.110Z,100394.7153916063
2024-03-05T22:02:31.684Z,100387.98209035685
2024-03-05T22:05:29.247Z,100390.0498719076
2024-03-05T22:08:25.811Z,100388.4672409614
2024-03-05T22:11:22.454Z,100396.07505521725
2024-03-05T22:14:18.955Z,100393.74124581079
2024-03-05T22:17:15.482Z,100395.35916861206
2024-03-05T22:20:14.098Z,100402.42651125461
2024-03-05T22:23:13.610Z,100401.72764263341
2024-03-05T22:26:17.128Z,100403.53569509789
2024-03-05T22:29:14.690Z,100407.04029855358
2024-03-05T22:32:10.394Z,100409.5072395221
2024-03-05T22:35:11.106Z,100411.02912743432
2024-03-05T22:38:08.441Z,100413.41379796693
2024-03-05T22:41:06.031Z,100416.35035872026
2024-03-05T22:44:02.479Z,100420.15360157905
2024-03-05T22:47:00.012Z,100417.26502097699
2024-03-05T22:49:55.603Z,100410.09661935923
2024-03-05T22:52:53.251Z,100414.82129681982
2024-03-05T22:55:49.713Z,100417.24891132792
2024-03-05T22:58:46.326Z,100417.98980651096
2024-03-05T23:01:42.853Z,100419.63533948941
2024-03-05T23:04:39.427Z,100417.66545590197
2024-03-05T23:07:34.907Z,100423.97145036982
2024-03-05T23:10:31.564Z,100425.15691147995
2024-03-05T23:13:27.055Z,100421.33364067484
2024-03-05T23:16:22.608Z,100425.6003037725
2024-03-05T23:19:24.173Z,100431.58904661979
2024-03-05T23:22:20.726Z,100433.67808179777
2024-03-05T23:25:17.276Z,100427.95227140412
2024-03-05T23:28:14.854Z,100431.73649075291
2024-03-05T23:31:11.407Z,100434.34438944636
2024-03-05T23:34:07.928Z,100426.8274385602
2024-03-05T23:37:05.558Z,100427.44395176778
2024-03-05T23:40:01.097Z,100425.46896092554
2024-03-05T23:42:57.609Z,100423.17090306134
2024-03-05T23:45:55.195Z,100421.69730030485
2024-03-05T23:48:50.828Z,100422.08060980705
2024-03-05T23:51:46.317Z,100424.68592926538
2024-03-05T23:54:42.866Z,100426.53878336026
2024-03-05T23:57:38.430Z,100429.14025766453
